createdAt,value
2023-03-17T00:00:20.033Z,101175.31
2023-03-17T00:02:49.847Z,101175.31
2023-03-17T00:05:23.380Z,101175.31
2023-03-17T00:07:53.144Z,101163.25
2023-03-17T00:10:26.027Z,101172.69
2023-03-17T00:12:55.348Z,101171.69
2023-03-17T00:15:23.617Z,101175.31
2023-03-17T00:17:50.824Z,101175.31
2023-03-17T00:20:24.514Z,101171.97
2023-03-17T00:22:51.904Z,101160.78
2023-03-17T00:25:25.652Z,101167.75
2023-03-17T00:27:53.465Z,101165.13
2023-03-17T00:30:21.458Z,101161.78
2023-03-17T00:32:51.833Z,101151.53
2023-03-17T00:35:26.859Z,101150.72
2023-03-17T00:37:56.026Z,101148.91
2023-03-17T00:40:29.665Z,101153.97
2023-03-17T00:42:58.818Z,101146.25
2023-03-17T00:45:29.780Z,101151.31
2023-03-17T00:47:57.915Z,101146.25
2023-03-17T00:50:28.324Z,101152.16
2023-03-17T00:52:58.210Z,101144.50
2023-03-17T00:55:26.915Z,101141.16
2023-03-17T00:57:54.667Z,101134.97
2023-03-17T01:00:27.612Z,101134.31
2023-03-17T01:02:57.063Z,101137.66
2023-03-17T01:05:25.641Z,101146.97
2023-03-17T01:07:58.071Z,101139.28
2023-03-17T01:10:28.562Z,101134.31
2023-03-17T01:12:59.072Z,101124.16
2023-03-17T01:15:31.786Z,101130.03
2023-03-17T01:18:03.077Z,101129.25
2023-03-17T01:20:34.682Z,101128.50
2023-03-17T01:23:02.543Z,101131.09
2023-03-17T01:25:29.831Z,101136.19
2023-03-17T01:27:59.461Z,101128.41
2023-03-17T01:30:33.481Z,101136.31
2023-03-17T01:33:00.716Z,101136.31
2023-03-17T01:35:29.672Z,101137.19
2023-03-17T01:37:57.433Z,101125.88
2023-03-17T01:40:32.865Z,101130.09
2023-03-17T01:43:04.653Z,101137.97
2023-03-17T01:46:09.999Z,101129.38
2023-03-17T01:48:40.918Z,101125.00
2023-03-17T01:51:13.046Z,101109.31
2023-03-17T01:53:40.176Z,101115.56
2023-03-17T01:56:08.180Z,101110.47
2023-03-17T01:58:35.609Z,101105.25
2023-03-17T02:01:02.759Z,101105.97
2023-03-17T02:03:30.229Z,101106.84
2023-03-17T02:05:59.286Z,101102.41
2023-03-17T02:08:26.505Z,101086.22
2023-03-17T02:10:54.757Z,101089.69
2023-03-17T02:13:22.136Z,101084.59
2023-03-17T02:15:53.289Z,101077.63
2023-03-17T02:18:22.853Z,101082.88
2023-03-17T02:20:49.735Z,101081.00
2023-03-17T02:23:22.497Z,101091.19
2023-03-17T02:25:51.443Z,101086.09
2023-03-17T02:28:31.030Z,101090.28
2023-03-17T02:30:58.151Z,101086.09
2023-03-17T02:33:25.510Z,101089.53
2023-03-17T02:35:55.327Z,101096.41
2023-03-17T02:38:22.385Z,101087.94
2023-03-17T02:40:51.506Z,101085.53
2023-03-17T02:43:19.848Z,101078.94
2023-03-17T02:45:46.826Z,101065.13
2023-03-17T02:48:14.876Z,101071.22
2023-03-17T02:50:42.056Z,101067.84
2023-03-17T02:53:09.487Z,101060.66
2023-03-17T02:55:36.600Z,101068.47
2023-03-17T02:58:03.995Z,101081.41
2023-03-17T03:00:31.500Z,101074.72
2023-03-17T03:02:58.816Z,101084.88
2023-03-17T03:05:26.034Z,101080.41
2023-03-17T03:07:53.141Z,101095.19
2023-03-17T03:10:20.212Z,101089.31
2023-03-17T03:12:47.490Z,101073.97
2023-03-17T03:15:14.772Z,101086.09
2023-03-17T03:17:42.298Z,101093.78
2023-03-17T03:20:11.636Z,101088.66
2023-03-17T03:22:39.166Z,101090.50
2023-03-17T03:25:07.775Z,101088.06
2023-03-17T03:27:35.033Z,101088.91
2023-03-17T03:30:02.337Z,101075.25
2023-03-17T03:32:29.409Z,101070.28
2023-03-17T03:34:57.058Z,101066.81
2023-03-17T03:37:24.119Z,101059.97
2023-03-17T03:39:51.654Z,101063.47
2023-03-17T03:42:18.935Z,101039.59
2023-03-17T03:44:45.897Z,101042.97
2023-03-17T03:47:12.976Z,101051.69
2023-03-17T03:49:40.109Z,101055.00
2023-03-17T03:52:07.375Z,101048.31
2023-03-17T03:54:34.481Z,101045.00
2023-03-17T03:57:01.575Z,101034.66
2023-03-17T03:59:29.586Z,101033.19
2023-03-17T04:01:56.864Z,101038.25
2023-03-17T04:04:24.041Z,101039.94
2023-03-17T04:06:51.186Z,101043.34
2023-03-17T04:09:18.267Z,101043.34
2023-03-17T04:11:45.292Z,101047.09
2023-03-17T04:14:12.932Z,101052.19
2023-03-17T04:16:42.215Z,101054.81
2023-03-17T04:19:11.456Z,101054.81
2023-03-17T04:21:38.554Z,101057.41
2023-03-17T04:24:06.001Z,101057.41
2023-03-17T04:26:33.240Z,101064.28
2023-03-17T04:29:00.342Z,101064.41
2023-03-17T04:31:27.704Z,101061.03
2023-03-17T04:33:54.803Z,101036.47
2023-03-17T04:36:24.066Z,101032.38
2023-03-17T04:38:51.188Z,101027.16
2023-03-17T04:41:18.383Z,101030.59
2023-03-17T04:43:46.215Z,101025.50
2023-03-17T04:46:13.887Z,101018.78
2023-03-17T04:48:41.578Z,101024.84
2023-03-17T04:51:11.048Z,101024.97
2023-03-17T04:53:38.638Z,101022.31
2023-03-17T04:56:06.178Z,101015.63
2023-03-17T04:58:33.212Z,101018.19
2023-03-17T05:01:00.788Z,101018.94
2023-03-17T05:03:28.771Z,101018.94
2023-03-17T05:05:59.061Z,101031.00
2023-03-17T05:08:28.496Z,101039.72
2023-03-17T05:10:56.290Z,101036.22
2023-03-17T05:13:23.905Z,101049.28
2023-03-17T05:15:52.755Z,101054.44
2023-03-17T05:18:22.236Z,101059.41
2023-03-17T05:20:49.318Z,101056.97
2023-03-17T05:23:16.627Z,101049.28
2023-03-17T05:25:44.211Z,101052.00
2023-03-17T05:28:11.731Z,101048.69
2023-03-17T05:30:38.829Z,101056.31
2023-03-17T05:33:06.447Z,101061.47
2023-03-17T05:35:33.678Z,101059.94
2023-03-17T05:38:00.789Z,101058.25
2023-03-17T05:40:27.954Z,101052.78
2023-03-17T05:42:55.134Z,101037.44
2023-03-17T05:45:22.342Z,101034.13
2023-03-17T05:47:49.493Z,101028.88
2023-03-17T05:50:16.702Z,101030.25
2023-03-17T05:52:43.823Z,101025.69
2023-03-17T05:55:11.874Z,101032.53
2023-03-17T05:57:38.949Z,101042.09
2023-03-17T06:00:06.365Z,101040.44
2023-03-17T06:02:33.531Z,101034.53
2023-03-17T06:05:00.529Z,101028.47
2023-03-17T06:07:31.237Z,101031.16
2023-03-17T06:10:05.564Z,101032.78
2023-03-17T06:12:33.107Z,101044.84
2023-03-17T06:15:00.183Z,101022.72
2023-03-17T06:17:27.335Z,101010.72
2023-03-17T06:19:54.448Z,101027.19
2023-03-17T06:22:21.433Z,101031.66
2023-03-17T06:24:48.467Z,101023.31
2023-03-17T06:27:15.708Z,101012.38
2023-03-17T06:29:42.836Z,101026.00
2023-03-17T06:32:20.224Z,101039.00
2023-03-17T06:34:48.345Z,101039.09
2023-03-17T06:37:16.659Z,101032.50
2023-03-17T06:39:44.034Z,101024.97
2023-03-17T06:42:11.242Z,101025.91
2023-03-17T06:44:38.299Z,101020.81
2023-03-17T06:47:05.432Z,101022.53
2023-03-17T06:49:32.962Z,101015.72
2023-03-17T06:52:00.178Z,101012.22
2023-03-17T06:54:27.513Z,101004.75
2023-03-17T06:56:54.742Z,101002.50
2023-03-17T06:59:22.930Z,101004.22
2023-03-17T07:01:50.524Z,101024.84
2023-03-17T07:04:17.877Z,101027.59
2023-03-17T07:06:45.154Z,101025.22
2023-03-17T07:09:12.541Z,101036.59
2023-03-17T07:11:39.743Z,101030.56
2023-03-17T07:14:06.901Z,101028.03
2023-03-17T07:16:34.275Z,101028.94
2023-03-17T07:19:02.244Z,101026.31
2023-03-17T07:21:29.329Z,101022.06
2023-03-17T07:23:56.545Z,101029.81
2023-03-17T07:26:23.629Z,101041.63
2023-03-17T07:28:51.068Z,101027.06
2023-03-17T07:31:18.379Z,101038.53
2023-03-17T07:33:45.786Z,101027.38
2023-03-17T07:36:13.345Z,101042.56
2023-03-17T07:38:40.426Z,101039.81
2023-03-17T07:41:10.375Z,101045.69
2023-03-17T07:43:38.397Z,101051.50
2023-03-17T07:46:06.594Z,101062.44
2023-03-17T07:48:34.533Z,101062.22
2023-03-17T07:51:01.723Z,101065.38
2023-03-17T07:53:28.823Z,101051.44
2023-03-17T07:55:56.036Z,101049.28
2023-03-17T07:58:23.051Z,101056.06
2023-03-17T08:00:50.098Z,101059.38
2023-03-17T08:03:17.194Z,101037.88
2023-03-17T08:05:44.763Z,101033.00
2023-03-17T08:08:12.885Z,101003.13
2023-03-17T08:10:39.916Z,101014.06
2023-03-17T08:13:07.963Z,101012.91
2023-03-17T08:15:35.036Z,101004.75
2023-03-17T08:18:02.638Z,101010.28
2023-03-17T08:20:30.142Z,100997.59
2023-03-17T08:22:57.910Z,101002.09
2023-03-17T08:25:25.081Z,100995.44
2023-03-17T08:27:52.225Z,100989.69
2023-03-17T08:30:20.912Z,100990.53
2023-03-17T08:32:48.480Z,100990.53
2023-03-17T08:35:17.269Z,100987.16
2023-03-17T08:37:46.418Z,100983.84
2023-03-17T08:40:17.230Z,100975.22
2023-03-17T08:42:44.933Z,100978.78
2023-03-17T08:45:13.157Z,100981.38
2023-03-17T08:47:40.472Z,100962.53
2023-03-17T08:50:12.859Z,100973.88
2023-03-17T08:52:39.942Z,100978.91
2023-03-17T08:55:09.366Z,100987.38
2023-03-17T08:57:36.568Z,100980.59
2023-03-17T09:00:11.141Z,100982.31
2023-03-17T09:02:43.510Z,100990.09
2023-03-17T09:05:14.026Z,100980.94
2023-03-17T09:07:42.052Z,100982.75
2023-03-17T09:10:11.182Z,100986.31
2023-03-17T09:12:38.527Z,100974.56
2023-03-17T09:15:07.847Z,100967.97
2023-03-17T09:17:35.049Z,100964.00
2023-03-17T09:20:02.095Z,100953.25
2023-03-17T09:22:29.145Z,100943.41
2023-03-17T09:24:56.212Z,100944.66
2023-03-17T09:27:23.286Z,100945.63
2023-03-17T09:29:50.327Z,100947.44
2023-03-17T09:32:18.090Z,100937.16
2023-03-17T09:34:45.397Z,100944.91
2023-03-17T09:37:12.468Z,100937.28
2023-03-17T09:39:39.628Z,100939.06
2023-03-17T09:42:36.587Z,100939.16
2023-03-17T09:45:18.458Z,100939.19
2023-03-17T09:48:24.946Z,100933.19
2023-03-17T09:50:54.830Z,100937.53
2023-03-17T09:53:36.136Z,100926.44
2023-03-17T09:56:08.102Z,100926.31
2023-03-17T09:58:37.574Z,100925.31
2023-03-17T10:01:07.972Z,100912.34
2023-03-17T10:03:34.934Z,100914.94
2023-03-17T10:06:24.446Z,100916.50
2023-03-17T10:09:34.569Z,100915.53
2023-03-17T10:12:23.017Z,100913.03
2023-03-17T10:15:02.101Z,100918.16
2023-03-17T10:17:35.348Z,100906.22
2023-03-17T10:20:26.308Z,100902.78
2023-03-17T10:23:01.937Z,100901.19
2023-03-17T10:25:31.958Z,100890.94
2023-03-17T10:28:23.541Z,100886.75
2023-03-17T10:30:50.616Z,100888.50
2023-03-17T10:33:18.111Z,100882.50
2023-03-17T10:35:45.654Z,100873.84
2023-03-17T10:38:18.913Z,100870.50
2023-03-17T10:40:58.348Z,100858.47
2023-03-17T10:43:30.080Z,100862.00
2023-03-17T10:46:02.862Z,100863.75
2023-03-17T10:48:35.530Z,100877.47
2023-03-17T10:51:08.789Z,100879.25
2023-03-17T10:53:44.049Z,100873.25
2023-03-17T10:56:31.056Z,100869.03
2023-03-17T10:59:34.605Z,100865.94
2023-03-17T11:02:17.295Z,100840.66
2023-03-17T11:04:44.734Z,100853.00
2023-03-17T11:07:19.296Z,100843.84
2023-03-17T11:09:51.735Z,100848.31
2023-03-17T11:12:28.202Z,100845.03
2023-03-17T11:15:01.112Z,100825.34
2023-03-17T11:17:39.068Z,100830.59
2023-03-17T11:20:06.089Z,100833.22
2023-03-17T11:22:42.053Z,100834.97
2023-03-17T11:25:11.562Z,100823.03
2023-03-17T11:28:19.514Z,100816.22
2023-03-17T11:31:32.306Z,100806.78
2023-03-17T11:34:07.198Z,100799.19
2023-03-17T11:36:46.501Z,100794.09
2023-03-17T11:39:23.182Z,100788.81
2023-03-17T11:42:02.875Z,100776.78
2023-03-17T11:44:42.115Z,100788.81
2023-03-17T11:47:28.809Z,100769.94
2023-03-17T11:50:08.719Z,100745.88
2023-03-17T11:53:14.305Z,100751.13
2023-03-17T11:55:57.934Z,100763.22
2023-03-17T11:58:32.182Z,100754.59
2023-03-17T12:01:01.954Z,100748.69
2023-03-17T12:03:54.626Z,100749.56
2023-03-17T12:06:39.750Z,100749.56
2023-03-17T12:09:38.598Z,100737.50
2023-03-17T12:12:07.677Z,100732.34
2023-03-17T12:14:44.371Z,100749.56
2023-03-17T12:17:30.474Z,100746.13
2023-03-17T12:20:19.984Z,100720.31
2023-03-17T12:23:07.105Z,100709.97
2023-03-17T12:26:09.145Z,100701.34
2023-03-17T12:28:44.356Z,100722.81
2023-03-17T12:31:26.360Z,100705.59
2023-03-17T12:34:05.383Z,100684.09
2023-03-17T12:36:34.704Z,100673.81
2023-03-17T12:39:09.453Z,100663.50
2023-03-17T12:42:01.919Z,100673.88
2023-03-17T12:45:03.327Z,100668.72
2023-03-17T12:47:43.066Z,100671.31
2023-03-17T12:50:31.605Z,100665.28
2023-03-17T12:53:19.932Z,100678.19
2023-03-17T12:55:51.229Z,100662.72
2023-03-17T12:58:39.225Z,100679.06
2023-03-17T13:01:41.910Z,100679.06
2023-03-17T13:04:22.103Z,100680.81
2023-03-17T13:07:19.653Z,100677.34
2023-03-17T13:10:10.877Z,100666.19
2023-03-17T13:12:40.423Z,100662.72
2023-03-17T13:15:25.591Z,100673.06
2023-03-17T13:18:10.817Z,100673.94
2023-03-17T13:20:43.396Z,100668.75
2023-03-17T13:23:10.533Z,100668.75
2023-03-17T13:25:41.645Z,100672.19
2023-03-17T13:28:14.339Z,100660.16
2023-03-17T13:31:05.213Z,100665.31
2023-03-17T13:33:33.100Z,100650.69
2023-03-17T13:36:13.809Z,100654.94
2023-03-17T13:39:15.138Z,100658.41
2023-03-17T13:42:20.015Z,100655.81
2023-03-17T13:45:25.792Z,100646.38
2023-03-17T13:47:53.783Z,100654.94
2023-03-17T13:50:32.911Z,100653.25
2023-03-17T13:53:10.602Z,100654.94
2023-03-17T13:55:42.512Z,100651.53
2023-03-17T13:58:11.621Z,100654.09
2023-03-17T14:00:42.598Z,100637.75
2023-03-17T14:03:21.067Z,100639.47
2023-03-17T14:05:51.145Z,100628.28
2023-03-17T14:08:55.850Z,100631.72
2023-03-17T14:11:40.380Z,100625.69
2023-03-17T14:14:32.870Z,100628.25
2023-03-17T14:17:18.901Z,100613.63
2023-03-17T14:20:27.306Z,100611.91
2023-03-17T14:23:00.748Z,100608.44
2023-03-17T14:25:34.613Z,100606.72
2023-03-17T14:28:09.350Z,100611.03
2023-03-17T14:30:39.073Z,100608.44
2023-03-17T14:33:12.137Z,100601.56
2023-03-17T14:35:43.455Z,100601.56
2023-03-17T14:38:20.891Z,100594.69
2023-03-17T14:40:48.703Z,100591.25
2023-03-17T14:43:16.821Z,100595.56
2023-03-17T14:46:13.042Z,100596.41
2023-03-17T14:48:43.024Z,100593.00
2023-03-17T14:51:30.701Z,100605.03
2023-03-17T14:54:01.115Z,100603.31
2023-03-17T14:56:38.421Z,100614.50
2023-03-17T14:59:16.881Z,100598.13
2023-03-17T15:01:48.010Z,100615.34
2023-03-17T15:04:22.020Z,100601.56
2023-03-17T15:06:59.445Z,100604.16
2023-03-17T15:09:36.439Z,100576.56
2023-03-17T15:12:13.226Z,100601.53
2023-03-17T15:14:41.517Z,100598.09
2023-03-17T15:17:17.245Z,100596.38
2023-03-17T15:19:58.279Z,100598.06
2023-03-17T15:22:28.357Z,100598.94
2023-03-17T15:25:17.831Z,100589.44
2023-03-17T15:27:45.482Z,100599.81
2023-03-17T15:30:13.378Z,100601.50
2023-03-17T15:32:40.759Z,100604.06
2023-03-17T15:35:12.061Z,100610.94
2023-03-17T15:37:39.229Z,100610.09
2023-03-17T15:40:07.210Z,100601.47
2023-03-17T15:42:36.627Z,100603.16
2023-03-17T15:45:04.965Z,100592.81
2023-03-17T15:47:36.851Z,100597.13
2023-03-17T15:50:26.065Z,100599.69
2023-03-17T15:52:56.433Z,100608.25
2023-03-17T15:55:30.881Z,100604.81
2023-03-17T15:57:58.838Z,100603.00
2023-03-17T16:00:30.066Z,100600.38
2023-03-17T16:03:01.611Z,100602.97
2023-03-17T16:05:32.005Z,100602.06
2023-03-17T16:07:58.955Z,100612.34
2023-03-17T16:10:29.358Z,100608.03
2023-03-17T16:12:56.733Z,100620.03
2023-03-17T16:15:31.594Z,100606.25
2023-03-17T16:18:01.873Z,100613.09
2023-03-17T16:20:32.949Z,100606.19
2023-03-17T16:23:07.680Z,100607.88
2023-03-17T16:25:34.881Z,100602.69
2023-03-17T16:28:07.834Z,100609.53
2023-03-17T16:30:34.947Z,100600.91
2023-03-17T16:33:12.585Z,100601.72
2023-03-17T16:35:39.785Z,100599.06
2023-03-17T16:38:10.596Z,100597.28
2023-03-17T16:40:38.858Z,100598.13
2023-03-17T16:43:24.302Z,100611.81
2023-03-17T16:45:53.916Z,100604.03
2023-03-17T16:48:21.172Z,100598.84
2023-03-17T16:50:48.655Z,100591.06
2023-03-17T16:53:15.672Z,100581.56
2023-03-17T16:55:44.018Z,100583.22
2023-03-17T16:58:21.700Z,100583.16
2023-03-17T17:00:51.147Z,100587.41
2023-03-17T17:03:18.345Z,100590.78
2023-03-17T17:05:46.472Z,100589.00
2023-03-17T17:08:13.571Z,100587.31
2023-03-17T17:10:41.032Z,100586.50
2023-03-17T17:13:09.316Z,100592.50
2023-03-17T17:15:37.939Z,100595.91
2023-03-17T17:18:14.624Z,100596.75
2023-03-17T17:20:42.677Z,100598.44
2023-03-17T17:23:18.744Z,100596.72
2023-03-17T17:25:46.284Z,100601.84
2023-03-17T17:28:16.799Z,100612.94
2023-03-17T17:30:46.421Z,100608.59
2023-03-17T17:33:14.757Z,100618.88
2023-03-17T17:35:43.663Z,100618.81
2023-03-17T17:38:22.331Z,100619.63
2023-03-17T17:40:50.184Z,100620.41
2023-03-17T17:43:18.465Z,100624.66
2023-03-17T17:45:48.830Z,100621.16
2023-03-17T17:48:17.126Z,100606.50
2023-03-17T17:50:44.603Z,100611.59
2023-03-17T17:53:12.709Z,100619.28
2023-03-17T17:55:44.320Z,100617.53
2023-03-17T17:58:23.738Z,100621.81
2023-03-17T18:00:52.838Z,100613.22
2023-03-17T18:03:24.771Z,100609.72
2023-03-17T18:05:53.963Z,100609.66
2023-03-17T18:08:21.625Z,100607.94
2023-03-17T18:10:51.505Z,100609.66
2023-03-17T18:13:19.236Z,100606.22
2023-03-17T18:15:46.703Z,100601.03
2023-03-17T18:18:13.933Z,100596.69
2023-03-17T18:20:41.214Z,100609.53
2023-03-17T18:23:08.656Z,100600.97
2023-03-17T18:25:37.394Z,100598.38
2023-03-17T18:28:05.186Z,100600.06
2023-03-17T18:30:35.241Z,100592.31
2023-03-17T18:33:10.993Z,100593.97
2023-03-17T18:35:38.484Z,100589.59
2023-03-17T18:38:05.874Z,100591.31
2023-03-17T18:40:33.436Z,100588.78
2023-03-17T18:43:00.980Z,100587.00
2023-03-17T18:45:28.100Z,100588.75
2023-03-17T18:47:55.365Z,100581.81
2023-03-17T18:50:22.642Z,100578.38
2023-03-17T18:52:50.404Z,100578.38
2023-03-17T18:55:18.194Z,100577.47
2023-03-17T18:57:46.702Z,100572.22
2023-03-17T19:00:16.688Z,100578.22
2023-03-17T19:02:44.106Z,100568.78
2023-03-17T19:05:13.090Z,100573.03
2023-03-17T19:07:41.242Z,100564.44
2023-03-17T19:10:10.897Z,100560.13
2023-03-17T19:12:38.477Z,100557.47
2023-03-17T19:15:07.629Z,100562.56
2023-03-17T19:17:35.779Z,100566.84
2023-03-17T19:20:03.270Z,100568.50
2023-03-17T19:22:30.308Z,100552.09
2023-03-17T19:24:57.366Z,100549.44
2023-03-17T19:27:24.665Z,100565.88
2023-03-17T19:29:51.785Z,100562.41
2023-03-17T19:32:19.012Z,100560.66
2023-03-17T19:34:48.018Z,100565.75
2023-03-17T19:37:15.381Z,100559.66
2023-03-17T19:39:45.139Z,100556.28
2023-03-17T19:42:12.950Z,100553.59
2023-03-17T19:44:40.892Z,100553.59
2023-03-17T19:47:08.714Z,100565.59
2023-03-17T19:49:37.753Z,100554.44
2023-03-17T19:52:06.878Z,100567.28
2023-03-17T19:54:34.551Z,100550.16
2023-03-17T19:57:01.889Z,100558.69
2023-03-17T19:59:28.903Z,100546.66
2023-03-17T20:01:56.287Z,100558.63
2023-03-17T20:04:23.705Z,100548.34
2023-03-17T20:06:55.928Z,100544.88
2023-03-17T20:09:25.667Z,100548.28
2023-03-17T20:11:56.877Z,100539.66
2023-03-17T20:14:24.433Z,100532.75
2023-03-17T20:16:52.197Z,100539.66
2023-03-17T20:19:19.250Z,100536.19
2023-03-17T20:21:46.348Z,100531.06
2023-03-17T20:24:14.940Z,100527.63
2023-03-17T20:26:43.583Z,100525.91
2023-03-17T20:29:14.571Z,100513.06
2023-03-17T20:31:43.005Z,100511.25
2023-03-17T20:34:10.896Z,100521.56
2023-03-17T20:36:42.504Z,100522.41
2023-03-17T20:39:13.939Z,100531.81
2023-03-17T20:41:41.548Z,100527.47
2023-03-17T20:44:08.645Z,100529.22
2023-03-17T20:46:35.811Z,100542.84
2023-03-17T20:49:04.268Z,100539.38
2023-03-17T20:51:32.547Z,100531.53
2023-03-17T20:54:02.148Z,100541.03
2023-03-17T20:56:30.056Z,100520.34
2023-03-17T20:58:58.727Z,100532.41
2023-03-17T21:01:26.951Z,100525.47
2023-03-17T21:03:54.287Z,100536.63
2023-03-17T21:06:23.566Z,100530.53
2023-03-17T21:08:51.694Z,100521.19
2023-03-17T21:11:20.949Z,100525.41
2023-03-17T21:13:48.121Z,100518.50
2023-03-17T21:16:21.713Z,100519.34
2023-03-17T21:18:49.044Z,100519.22
2023-03-17T21:21:17.470Z,100513.16
2023-03-17T21:23:45.061Z,100513.16
2023-03-17T21:26:13.906Z,100520.00
2023-03-17T21:28:41.829Z,100518.28
2023-03-17T21:31:09.761Z,100514.72
2023-03-17T21:33:37.357Z,100507.94
2023-03-17T21:36:05.263Z,100509.56
2023-03-17T21:38:32.373Z,100516.41
2023-03-17T21:41:17.895Z,100504.38
2023-03-17T21:43:46.772Z,100506.94
2023-03-17T21:46:14.604Z,100504.38
2023-03-17T21:48:41.861Z,100500.06
2023-03-17T21:51:08.903Z,100509.38
2023-03-17T21:53:35.967Z,100507.66
2023-03-17T21:56:04.157Z,100511.88
2023-03-17T21:58:31.226Z,100505.88
2023-03-17T22:01:00.894Z,100505.88
2023-03-17T22:03:28.041Z,100511.00
2023-03-17T22:05:55.226Z,100498.97
2023-03-17T22:08:22.796Z,100495.50
2023-03-17T22:10:49.991Z,100497.19
2023-03-17T22:13:17.501Z,100473.84
2023-03-17T22:15:45.015Z,100486.00
2023-03-17T22:18:12.144Z,100496.22
2023-03-17T22:20:39.315Z,100490.22
2023-03-17T22:23:06.463Z,100495.34
2023-03-17T22:25:33.661Z,100480.81
2023-03-17T22:28:00.754Z,100488.50
2023-03-17T22:30:28.131Z,100484.22
2023-03-17T22:32:55.346Z,100478.25
2023-03-17T22:35:23.692Z,100487.59
2023-03-17T22:37:51.137Z,100481.63
2023-03-17T22:40:19.362Z,100481.63
2023-03-17T22:42:47.069Z,100479.84
2023-03-17T22:45:15.306Z,100474.69
2023-03-17T22:47:42.745Z,100491.88
2023-03-17T22:50:10.900Z,100488.41
2023-03-17T22:52:39.018Z,100494.44
2023-03-17T22:55:07.884Z,100485.84
2023-03-17T22:57:36.146Z,100483.19
2023-03-17T23:00:09.546Z,100490.09
2023-03-17T23:02:36.668Z,100483.22
2023-03-17T23:05:04.035Z,100479.84
2023-03-17T23:07:38.098Z,100481.47
2023-03-17T23:10:14.999Z,100480.63
2023-03-17T23:12:44.111Z,100468.59
2023-03-17T23:15:11.709Z,100471.16
2023-03-17T23:17:38.989Z,100469.41
2023-03-17T23:20:07.109Z,100463.38
2023-03-17T23:22:34.469Z,100469.41
2023-03-17T23:25:02.030Z,100465.94
2023-03-17T23:27:29.078Z,100461.72
2023-03-17T23:29:57.298Z,100465.94
2023-03-17T23:32:24.690Z,100474.47
2023-03-17T23:34:51.756Z,100465.91
2023-03-17T23:37:18.910Z,100469.31
2023-03-17T23:39:45.983Z,100471.06
2023-03-17T23:42:13.044Z,100462.53
2023-03-17T23:44:41.296Z,100467.66
2023-03-17T23:47:09.872Z,100471.03
2023-03-17T23:49:37.036Z,100464.19
2023-03-17T23:52:04.958Z,100479.53
2023-03-17T23:54:32.380Z,100465.78
2023-03-17T23:57:00.153Z,100467.44
2023-03-17T23:59:27.434Z,100467.44
